Time;durP1;ratioP1;P1;durP2;ratioP2;P2;SDS_P1;SDS_P2;PMS_P1;PMS_P2;Temp;Humidity;BMP_temperature;BMP_pressure;BME280_temperature;BME280_humidity;BME280_pressure;Samples;Min_cycle;Max_cycle;Signal;HPM_P1;HPM_P2
2024/01/23 00:01:00;;;;;;;0.10;0.10;;;;;;;;;;5091418;28;20098;-73
2024/01/23 00:03:25;;;;;;;0.00;0.00;;;;;;;;;;5072783;28;20051;-76
2024/01/23 00:05:51;;;;;;;0.15;0.15;;;;;;;;;;5091005;28;20028;-74
2024/01/23 00:08:17;;;;;;;0.10;0.10;;;;;;;;;;5090660;28;20020;-76
2024/01/23 00:10:42;;;;;;;0.10;0.10;;;;;;;;;;5090902;28;20140;-74
2024/01/23 00:13:08;;;;;;;0.20;0.20;;;;;;;;;;5090645;28;20082;-77
2024/01/23 00:15:35;;;;;;;1.40;1.38;;;;;;;;;;5091004;28;20020;-75
2024/01/23 00:18:00;;;;;;;0.30;0.30;;;;;;;;;;5094795;28;20030;-75
2024/01/23 00:20:26;;;;;;;0.00;0.00;;;;;;;;;;5094678;28;20111;-74
2024/01/23 00:22:51;;;;;;;0.10;0.10;;;;;;;;;;5094555;28;20030;-74
2024/01/23 00:25:17;;;;;;;0.20;0.20;;;;;;;;;;5094758;28;20363;-75
2024/01/23 00:27:43;;;;;;;0.03;0.03;;;;;;;;;;5094175;28;20494;-75
2024/01/23 00:30:09;;;;;;;9.60;8.98;;;;;;;;;;5094346;28;20383;-75
2024/01/23 00:32:35;;;;;;;0.10;0.10;;;;;;;;;;5094170;28;20106;-77
2024/01/23 00:35:00;;;;;;;0.10;0.10;;;;;;;;;;5093945;28;20372;-76
2024/01/23 00:37:26;;;;;;;0.75;0.75;;;;;;;;;;5094258;28;20379;-74
2024/01/23 00:39:54;;;;;;;1.08;1.08;;;;;;;;;;5094031;28;20028;-75
2024/01/23 00:42:20;;;;;;;0.10;0.10;;;;;;;;;;5094042;28;20024;-75
2024/01/23 00:44:45;;;;;;;0.17;0.17;;;;;;;;;;5093982;28;20364;-74
2024/01/23 00:47:12;;;;;;;0.50;0.50;;;;;;;;;;5093902;28;20472;-75
2024/01/23 00:49:37;;;;;;;0.63;0.63;;;;;;;;;;5093930;28;20368;-75
2024/01/23 00:52:03;;;;;;;0.10;0.10;;;;;;;;;;5093912;28;20085;-74
2024/01/23 00:54:29;;;;;;;0.08;0.08;;;;;;;;;;5093991;28;20074;-75
2024/01/23 00:56:54;;;;;;;0.75;0.75;;;;;;;;;;5093824;28;20024;-75
2024/01/23 00:59:20;;;;;;;7.75;4.22;;;;;;;;;;5093808;28;20091;-74
2024/01/23 01:01:46;;;;;;;0.10;0.10;;;;;;;;;;5093779;28;20469;-74
2024/01/23 01:04:11;;;;;;;1.20;1.10;;;;;;;;;;5093806;28;20029;-76
2024/01/23 01:06:37;;;;;;;0.25;0.25;;;;;;;;;;5076178;28;20023;-74
2024/01/23 01:09:03;;;;;;;0.82;0.82;;;;;;;;;;5093658;28;20027;-75
2024/01/23 01:11:28;;;;;;;0.20;0.20;;;;;;;;;;5093780;28;20060;-74
2024/01/23 01:13:54;;;;;;;0.10;0.10;;;;;;;;;;5093615;28;20059;-74
2024/01/23 01:16:19;;;;;;;0.57;0.57;;;;;;;;;;5093521;28;20024;-74
2024/01/23 01:18:45;;;;;;;0.10;0.10;;;;;;;;;;5093510;28;20024;-75
2024/01/23 01:21:11;;;;;;;0.10;0.10;;;;;;;;;;5093957;28;20032;-75
2024/01/23 01:23:36;;;;;;;0.10;0.10;;;;;;;;;;5093531;28;20107;-74
2024/01/23 01:26:02;;;;;;;0.20;0.20;;;;;;;;;;5093495;28;20387;-74
2024/01/23 01:28:28;;;;;;;0.10;0.10;;;;;;;;;;5093546;28;20020;-73
2024/01/23 01:30:53;;;;;;;0.10;0.10;;;;;;;;;;5093358;28;20051;-75
2024/01/23 01:33:19;;;;;;;0.10;0.10;;;;;;;;;;5093620;28;20089;-74
2024/01/23 01:35:45;;;;;;;0.10;0.10;;;;;;;;;;5091184;28;20044;-73
2024/01/23 01:38:10;;;;;;;0.10;0.10;;;;;;;;;;5088945;28;20028;-74
2024/01/23 01:40:36;;;;;;;0.10;0.10;;;;;;;;;;5093463;28;20410;-74
2024/01/23 01:43:02;;;;;;;0.10;0.10;;;;;;;;;;5093669;28;20136;-74
2024/01/23 01:45:27;;;;;;;0.25;0.25;;;;;;;;;;5075362;28;20105;-75
2024/01/23 01:47:53;;;;;;;0.10;0.10;;;;;;;;;;5093220;28;20051;-73
2024/01/23 01:50:19;;;;;;;1.95;1.85;;;;;;;;;;5093236;28;20050;-74
2024/01/23 01:52:45;;;;;;;1.08;1.08;;;;;;;;;;5093317;28;20020;-74
2024/01/23 01:55:11;;;;;;;0.10;0.10;;;;;;;;;;5093388;28;20024;-76
2024/01/23 01:57:38;;;;;;;0.10;0.10;;;;;;;;;;5093370;28;20030;-75
2024/01/23 02:00:06;;;;;;;1.33;1.30;;;;;;;;;;5093163;28;20043;-74
2024/01/23 02:02:40;;;;;;;0.13;0.13;;;;;;;;;;5093181;28;20091;-75
2024/01/23 02:05:06;;;;;;;0.10;0.10;;;;;;;;;;5093567;28;20058;-75
2024/01/23 02:07:33;;;;;;;0.10;0.10;;;;;;;;;;5093104;28;20020;-74
2024/01/23 02:09:59;;;;;;;0.50;0.50;;;;;;;;;;5093005;28;20036;-73
2024/01/23 02:12:24;;;;;;;0.10;0.10;;;;;;;;;;5093123;28;20028;-73
2024/01/23 02:14:50;;;;;;;0.30;0.30;;;;;;;;;;5092927;28;20028;-73
2024/01/23 02:17:15;;;;;;;0.10;0.10;;;;;;;;;;5093125;28;20047;-73
2024/01/23 02:19:41;;;;;;;0.10;0.10;;;;;;;;;;5092962;28;20387;-72
2024/01/23 02:22:06;;;;;;;0.10;0.10;;;;;;;;;;5093088;28;20491;-73
2024/01/23 02:24:32;;;;;;;0.10;0.10;;;;;;;;;;5093386;28;20039;-73
2024/01/23 02:26:57;;;;;;;0.10;0.10;;;;;;;;;;5093303;28;20020;-73
2024/01/23 02:29:23;;;;;;;0.10;0.10;;;;;;;;;;5096367;28;20040;-72
2024/01/23 02:31:48;;;;;;;1.70;1.65;;;;;;;;;;5096514;28;20107;-72
2024/01/23 02:34:14;;;;;;;0.10;0.10;;;;;;;;;;5095176;28;20030;-73
2024/01/23 02:36:41;;;;;;;0.20;0.20;;;;;;;;;;5096361;28;20048;-73
2024/01/23 02:39:07;;;;;;;0.55;0.55;;;;;;;;;;5096450;28;20027;-73
2024/01/23 02:41:33;;;;;;;0.10;0.10;;;;;;;;;;5096280;28;20032;-73
2024/01/23 02:43:58;;;;;;;0.10;0.10;;;;;;;;;;5096169;28;20062;-74
2024/01/23 02:46:24;;;;;;;0.22;0.22;;;;;;;;;;5096372;28;20029;-74
2024/01/23 02:48:50;;;;;;;0.10;0.10;;;;;;;;;;5096748;28;20024;-73
2024/01/23 02:51:19;;;;;;;0.10;0.10;;;;;;;;;;5096364;28;20028;-74
2024/01/23 02:53:45;;;;;;;0.32;0.32;;;;;;;;;;5096203;28;20035;-74
2024/01/23 02:56:10;;;;;;;0.52;0.50;;;;;;;;;;5096135;28;20028;-74
2024/01/23 02:58:37;;;;;;;0.10;0.10;;;;;;;;;;5095981;28;20494;-74
2024/01/23 03:01:02;;;;;;;0.20;0.20;;;;;;;;;;5061341;28;20391;-74
2024/01/23 03:03:28;;;;;;;1.85;1.75;;;;;;;;;;5096138;28;20028;-74
2024/01/23 03:05:53;;;;;;;0.10;0.10;;;;;;;;;;5096110;28;20103;-74
2024/01/23 03:08:22;;;;;;;0.70;0.70;;;;;;;;;;5095886;28;20039;-76
2024/01/23 03:10:48;;;;;;;0.17;0.17;;;;;;;;;;5095923;28;20032;-76
2024/01/23 03:13:13;;;;;;;0.63;0.63;;;;;;;;;;5095743;28;20138;-75
2024/01/23 03:15:40;;;;;;;0.10;0.10;;;;;;;;;;5095686;28;20111;-75
2024/01/23 03:18:06;;;;;;;0.10;0.10;;;;;;;;;;5077906;28;20024;-74
2024/01/23 03:20:33;;;;;;;0.10;0.10;;;;;;;;;;5095653;28;20031;-74
2024/01/23 03:22:58;;;;;;;0.08;0.08;;;;;;;;;;5095614;28;20058;-74
2024/01/23 03:25:24;;;;;;;0.10;0.10;;;;;;;;;;5095531;28;20040;-74
2024/01/23 03:27:50;;;;;;;0.10;0.10;;;;;;;;;;5095161;28;20426;-74
2024/01/23 03:30:29;;;;;;;0.10;0.10;;;;;;;;;;5095393;28;20039;-74
2024/01/23 03:32:55;;;;;;;0.10;0.10;;;;;;;;;;5095281;28;20031;-74
2024/01/23 03:35:20;;;;;;;0.10;0.10;;;;;;;;;;5095172;28;20443;-74
2024/01/23 03:37:46;;;;;;;0.17;0.17;;;;;;;;;;5095360;28;20032;-75
2024/01/23 03:40:12;;;;;;;0.10;0.10;;;;;;;;;;5075898;28;20101;-75
2024/01/23 03:42:37;;;;;;;0.10;0.10;;;;;;;;;;5077115;28;20483;-74
2024/01/23 03:45:03;;;;;;;0.10;0.10;;;;;;;;;;5095203;28;20028;-74
2024/01/23 03:47:29;;;;;;;0.10;0.10;;;;;;;;;;5094836;28;20384;-72
2024/01/23 03:49:54;;;;;;;0.10;0.10;;;;;;;;;;5094898;28;20036;-75
2024/01/23 03:52:22;;;;;;;0.10;0.10;;;;;;;;;;5095047;28;20490;-74
2024/01/23 03:54:49;;;;;;;0.10;0.10;;;;;;;;;;5059977;28;20024;-74
2024/01/23 03:57:14;;;;;;;0.65;0.65;;;;;;;;;;5094849;28;20031;-75
2024/01/23 03:59:43;;;;;;;3.03;1.67;;;;;;;;;;5094924;28;20361;-75
2024/01/23 04:02:08;;;;;;;0.20;0.20;;;;;;;;;;5090576;28;20034;-75
2024/01/23 04:04:34;;;;;;;5.03;4.78;;;;;;;;;;5071833;28;20020;-74
2024/01/23 04:07:00;;;;;;;0.82;0.82;;;;;;;;;;5086688;28;20422;-75
2024/01/23 04:09:27;;;;;;;0.20;0.20;;;;;;;;;;5090465;28;20027;-74
2024/01/23 04:11:53;;;;;;;0.20;0.20;;;;;;;;;;5072642;28;20475;-74
2024/01/23 04:14:19;;;;;;;0.10;0.10;;;;;;;;;;5090279;28;20054;-78
2024/01/23 04:16:44;;;;;;;0.20;0.20;;;;;;;;;;5091009;28;20117;-74
2024/01/23 04:19:10;;;;;;;0.20;0.20;;;;;;;;;;5090811;28;20027;-74
2024/01/23 04:21:36;;;;;;;0.10;0.10;;;;;;;;;;5090990;28;20084;-74
2024/01/23 04:24:01;;;;;;;0.20;0.20;;;;;;;;;;5089400;28;20483;-74
2024/01/23 04:26:27;;;;;;;0.57;0.57;;;;;;;;;;5054767;28;20067;-73
2024/01/23 04:28:52;;;;;;;0.10;0.10;;;;;;;;;;5070520;28;20032;-73
2024/01/23 04:31:18;;;;;;;0.47;0.32;;;;;;;;;;5070077;28;20020;-74
2024/01/23 04:33:46;;;;;;;0.10;0.10;;;;;;;;;;5070575;28;20020;-74
2024/01/23 04:36:12;;;;;;;0.10;0.10;;;;;;;;;;5069615;28;20037;-74
2024/01/23 04:38:38;;;;;;;0.10;0.10;;;;;;;;;;5069933;28;20036;-75
2024/01/23 04:41:04;;;;;;;0.10;0.10;;;;;;;;;;5070277;28;20032;-74
2024/01/23 04:43:30;;;;;;;0.10;0.10;;;;;;;;;;5069886;28;20028;-77
2024/01/23 04:45:55;;;;;;;0.52;0.52;;;;;;;;;;5069967;28;20028;-72
2024/01/23 04:48:21;;;;;;;0.10;0.10;;;;;;;;;;5069918;28;20029;-73
2024/01/23 04:50:50;;;;;;;0.20;0.20;;;;;;;;;;5051832;28;20067;-74
2024/01/23 04:53:15;;;;;;;0.17;0.17;;;;;;;;;;5051842;28;20025;-74
2024/01/23 04:55:41;;;;;;;0.15;0.15;;;;;;;;;;5069974;28;20487;-74
2024/01/23 04:58:07;;;;;;;0.10;0.10;;;;;;;;;;5069535;28;20039;-73
2024/01/23 05:00:32;;;;;;;0.32;0.32;;;;;;;;;;5070128;28;20044;-74
2024/01/23 05:02:58;;;;;;;0.10;0.10;;;;;;;;;;5071964;28;20157;-74
2024/01/23 05:05:24;;;;;;;0.10;0.10;;;;;;;;;;5078260;28;20035;-73
2024/01/23 05:07:49;;;;;;;0.10;0.10;;;;;;;;;;5069667;28;20032;-74
2024/01/23 05:10:15;;;;;;;1.67;1.60;;;;;;;;;;5069262;28;20087;-72
2024/01/23 05:12:41;;;;;;;0.20;0.20;;;;;;;;;;5069771;28;20016;-74
2024/01/23 05:15:07;;;;;;;0.13;0.13;;;;;;;;;;5069548;28;20357;-74
2024/01/23 05:17:33;;;;;;;0.55;0.55;;;;;;;;;;5073683;28;20035;-75
2024/01/23 05:19:58;;;;;;;0.10;0.10;;;;;;;;;;5083555;28;20548;-73
2024/01/23 05:22:24;;;;;;;0.38;0.38;;;;;;;;;;5068199;28;20464;-74
2024/01/23 05:24:50;;;;;;;0.43;0.43;;;;;;;;;;5069767;28;20353;-75
2024/01/23 05:27:15;;;;;;;0.43;0.43;;;;;;;;;;5070077;28;20028;-75
2024/01/23 05:29:41;;;;;;;0.30;0.30;;;;;;;;;;5087337;28;20357;-75
2024/01/23 05:32:06;;;;;;;0.10;0.10;;;;;;;;;;5089867;28;20086;-76
2024/01/23 05:34:32;;;;;;;0.20;0.20;;;;;;;;;;5089395;28;20443;-75
2024/01/23 05:36:58;;;;;;;0.10;0.10;;;;;;;;;;5089128;28;20052;-74
2024/01/23 05:39:24;;;;;;;0.10;0.10;;;;;;;;;;5069773;28;20033;-72
2024/01/23 05:41:50;;;;;;;0.10;0.10;;;;;;;;;;5069238;28;20025;-79
2024/01/23 05:44:16;;;;;;;0.20;0.20;;;;;;;;;;5071177;28;20039;-73
2024/01/23 05:46:41;;;;;;;0.38;0.32;;;;;;;;;;5071538;28;20035;-74
2024/01/23 05:49:07;;;;;;;0.20;0.20;;;;;;;;;;5087203;28;20032;-75
2024/01/23 05:51:33;;;;;;;0.20;0.20;;;;;;;;;;5087324;28;20012;-76
2024/01/23 05:53:59;;;;;;;0.10;0.10;;;;;;;;;;5089668;28;20038;-75
2024/01/23 05:56:24;;;;;;;0.10;0.10;;;;;;;;;;5088883;28;20016;-74
2024/01/23 05:58:50;;;;;;;0.65;0.65;;;;;;;;;;5087944;28;20591;-77
2024/01/23 06:01:15;;;;;;;1.02;0.93;;;;;;;;;;5084424;28;20454;-76
2024/01/23 06:03:41;;;;;;;0.73;0.73;;;;;;;;;;5081759;28;20039;-74
2024/01/23 06:06:06;;;;;;;0.15;0.15;;;;;;;;;;5089765;28;20024;-75
2024/01/23 06:08:32;;;;;;;1.77;1.20;;;;;;;;;;5081478;28;20475;-74
2024/01/23 06:10:58;;;;;;;0.80;0.77;;;;;;;;;;5080959;28;20029;-74
2024/01/23 06:13:24;;;;;;;0.10;0.10;;;;;;;;;;5088609;28;20066;-75
2024/01/23 06:15:49;;;;;;;0.10;0.10;;;;;;;;;;5086443;28;20428;-72
2024/01/23 06:18:15;;;;;;;0.20;0.20;;;;;;;;;;5087750;28;20106;-73
2024/01/23 06:20:42;;;;;;;0.10;0.10;;;;;;;;;;5089193;28;20035;-75
2024/01/23 06:23:09;;;;;;;0.20;0.20;;;;;;;;;;5064029;28;20028;-74
2024/01/23 06:25:35;;;;;;;0.10;0.10;;;;;;;;;;5072771;28;20052;-72
2024/01/23 06:28:00;;;;;;;0.13;0.13;;;;;;;;;;5072866;28;20055;-75
2024/01/23 06:30:26;;;;;;;0.25;0.25;;;;;;;;;;5084438;28;20377;-75
2024/01/23 06:32:52;;;;;;;0.20;0.20;;;;;;;;;;5086748;28;20490;-75
2024/01/23 06:35:18;;;;;;;1.35;1.10;;;;;;;;;;5087901;28;20115;-73
2024/01/23 06:37:43;;;;;;;0.10;0.10;;;;;;;;;;5082436;28;20024;-74
2024/01/23 06:40:09;;;;;;;0.10;0.10;;;;;;;;;;5090547;28;20032;-73
2024/01/23 06:42:35;;;;;;;0.10;0.10;;;;;;;;;;5071504;28;20024;-75
2024/01/23 06:45:02;;;;;;;0.10;0.10;;;;;;;;;;5084534;28;20360;-75
2024/01/23 06:47:28;;;;;;;0.10;0.10;;;;;;;;;;5081461;28;20059;-75
2024/01/23 06:49:54;;;;;;;0.20;0.20;;;;;;;;;;5081321;28;20084;-76
2024/01/23 06:52:19;;;;;;;0.13;0.13;;;;;;;;;;5088598;28;20375;-74
2024/01/23 06:54:45;;;;;;;0.10;0.10;;;;;;;;;;5085930;28;20024;-76
2024/01/23 06:57:11;;;;;;;0.10;0.10;;;;;;;;;;5063221;28;20109;-74
2024/01/23 06:59:36;;;;;;;0.10;0.10;;;;;;;;;;5085700;28;20078;-74
2024/01/23 07:02:04;;;;;;;0.10;0.10;;;;;;;;;;5070022;28;20428;-74
2024/01/23 07:04:30;;;;;;;0.13;0.13;;;;;;;;;;5076423;28;20103;-74
2024/01/23 07:06:56;;;;;;;0.35;0.35;;;;;;;;;;5088095;28;20261;-75
2024/01/23 07:09:21;;;;;;;0.10;0.10;;;;;;;;;;5088494;28;20106;-75
2024/01/23 07:11:49;;;;;;;0.13;0.13;;;;;;;;;;5059507;28;20028;-75
2024/01/23 07:14:15;;;;;;;0.10;0.10;;;;;;;;;;5087132;28;20104;-75
2024/01/23 07:16:41;;;;;;;0.20;0.20;;;;;;;;;;5045739;28;20021;-74
2024/01/23 07:19:07;;;;;;;0.57;0.50;;;;;;;;;;5065994;28;20161;-75
2024/01/23 07:21:33;;;;;;;0.10;0.10;;;;;;;;;;5062050;28;20055;-73
2024/01/23 07:23:58;;;;;;;0.10;0.10;;;;;;;;;;5080163;28;20421;-73
2024/01/23 07:26:24;;;;;;;0.30;0.30;;;;;;;;;;5079758;28;20024;-73
2024/01/23 07:28:50;;;;;;;0.10;0.10;;;;;;;;;;5074167;28;20024;-74
2024/01/23 07:31:15;;;;;;;0.10;0.10;;;;;;;;;;5082643;28;20036;-74
2024/01/23 07:33:41;;;;;;;0.20;0.20;;;;;;;;;;5075389;28;20038;-73
2024/01/23 07:36:07;;;;;;;0.85;0.85;;;;;;;;;;5055463;28;20052;-75
2024/01/23 07:38:33;;;;;;;0.20;0.20;;;;;;;;;;5069409;28;20443;-74
2024/01/23 07:41:01;;;;;;;0.20;0.20;;;;;;;;;;5067911;28;20036;-73
2024/01/23 07:43:27;;;;;;;0.28;0.28;;;;;;;;;;5066256;28;20040;-75
2024/01/23 07:45:53;;;;;;;0.10;0.10;;;;;;;;;;5068270;28;20419;-75
2024/01/23 07:48:19;;;;;;;2.78;2.65;;;;;;;;;;5059424;28;20020;-72
2024/01/23 07:50:45;;;;;;;0.10;0.10;;;;;;;;;;5053202;28;20090;-74
2024/01/23 07:53:10;;;;;;;0.15;0.15;;;;;;;;;;5068653;28;20029;-78
2024/01/23 07:55:36;;;;;;;0.10;0.10;;;;;;;;;;5064575;28;20499;-74
2024/01/23 07:58:02;;;;;;;0.13;0.13;;;;;;;;;;5065136;28;20032;-75
2024/01/23 08:00:28;;;;;;;0.10;0.10;;;;;;;;;;5066127;28;20028;-74
2024/01/23 08:02:53;;;;;;;0.10;0.10;;;;;;;;;;5067225;28;20516;-75
2024/01/23 08:05:19;;;;;;;0.10;0.10;;;;;;;;;;5060652;28;20024;-74
2024/01/23 08:07:44;;;;;;;0.10;0.10;;;;;;;;;;5062534;28;20029;-75
2024/01/23 08:10:10;;;;;;;0.20;0.20;;;;;;;;;;5056857;28;20486;-73
2024/01/23 08:12:36;;;;;;;0.20;0.20;;;;;;;;;;5060288;28;20460;-73
2024/01/23 08:15:01;;;;;;;0.20;0.20;;;;;;;;;;5064535;28;20035;-75
2024/01/23 08:17:27;;;;;;;0.10;0.10;;;;;;;;;;5064213;28;20044;-74
2024/01/23 08:19:52;;;;;;;0.10;0.10;;;;;;;;;;5065210;28;20025;-74
2024/01/23 08:22:18;;;;;;;1.45;0.70;;;;;;;;;;5066420;28;20025;-74
2024/01/23 08:24:45;;;;;;;0.10;0.10;;;;;;;;;;5062558;28;20029;-74
2024/01/23 08:27:10;;;;;;;0.90;0.63;;;;;;;;;;5063397;28;20073;-76
2024/01/23 08:29:36;;;;;;;0.10;0.10;;;;;;;;;;5048155;28;20041;-74
2024/01/23 08:32:02;;;;;;;0.20;0.20;;;;;;;;;;5060604;28;20024;-75
2024/01/23 08:34:27;;;;;;;0.43;0.43;;;;;;;;;;5059883;28;20490;-74
2024/01/23 08:36:53;;;;;;;0.30;0.30;;;;;;;;;;5078187;28;20595;-74
2024/01/23 08:39:18;;;;;;;1.00;0.95;;;;;;;;;;5079484;28;20455;-72
2024/01/23 08:41:44;;;;;;;0.10;0.10;;;;;;;;;;5084024;28;20441;-73
2024/01/23 08:44:12;;;;;;;0.30;0.30;;;;;;;;;;5079222;28;20024;-74
2024/01/23 08:46:38;;;;;;;0.20;0.20;;;;;;;;;;5068442;28;20050;-74
2024/01/23 08:49:03;;;;;;;0.28;0.28;;;;;;;;;;5079371;28;20025;-73
2024/01/23 08:51:29;;;;;;;0.10;0.10;;;;;;;;;;5087444;28;20470;-78
2024/01/23 08:53:55;;;;;;;0.20;0.20;;;;;;;;;;5089785;28;20016;-76
2024/01/23 08:56:24;;;;;;;0.20;0.20;;;;;;;;;;5070833;28;20118;-74
2024/01/23 08:58:50;;;;;;;0.10;0.10;;;;;;;;;;5070094;28;20039;-75
2024/01/23 09:01:16;;;;;;;0.30;0.30;;;;;;;;;;5069934;28;20036;-74
2024/01/23 09:03:42;;;;;;;0.10;0.10;;;;;;;;;;5070766;28;20028;-74
2024/01/23 09:06:09;;;;;;;0.10;0.10;;;;;;;;;;5089086;28;20050;-73
2024/01/23 09:08:35;;;;;;;0.20;0.20;;;;;;;;;;5089236;28;20016;-75
2024/01/23 09:11:00;;;;;;;0.10;0.10;;;;;;;;;;5089125;28;20085;-75
2024/01/23 09:13:29;;;;;;;0.10;0.10;;;;;;;;;;5087958;28;20463;-77
2024/01/23 09:15:55;;;;;;;0.10;0.10;;;;;;;;;;5085951;28;20024;-75
2024/01/23 09:18:21;;;;;;;9.10;4.18;;;;;;;;;;5088378;28;20456;-77
2024/01/23 09:20:46;;;;;;;0.10;0.10;;;;;;;;;;5088447;28;20027;-74
2024/01/23 09:23:12;;;;;;;0.10;0.10;;;;;;;;;;5078530;28;20033;-76
2024/01/23 09:25:37;;;;;;;0.10;0.10;;;;;;;;;;5080963;28;20077;-74
2024/01/23 09:28:03;;;;;;;0.10;0.10;;;;;;;;;;5088661;28;20062;-74
2024/01/23 09:30:29;;;;;;;0.10;0.10;;;;;;;;;;5088357;28;20047;-75
2024/01/23 09:32:54;;;;;;;0.10;0.10;;;;;;;;;;5086473;28;20028;-74
2024/01/23 09:35:20;;;;;;;0.47;0.47;;;;;;;;;;5086275;28;20051;-73
2024/01/23 09:37:46;;;;;;;0.10;0.10;;;;;;;;;;5087200;28;20016;-74
2024/01/23 09:40:12;;;;;;;0.73;0.73;;;;;;;;;;5093039;28;20028;-74
2024/01/23 09:42:41;;;;;;;0.13;0.13;;;;;;;;;;5090412;28;20020;-74
2024/01/23 09:45:20;;;;;;;0.13;0.13;;;;;;;;;;5091393;28;20069;-74
2024/01/23 09:47:47;;;;;;;0.10;0.10;;;;;;;;;;5077399;28;20112;-74
2024/01/23 09:50:13;;;;;;;0.38;0.38;;;;;;;;;;5062167;28;20059;-74
2024/01/23 09:52:41;;;;;;;0.28;0.20;;;;;;;;;;5062535;28;20169;-75
2024/01/23 09:55:07;;;;;;;0.30;0.30;;;;;;;;;;5091828;28;20418;-74
2024/01/23 09:57:33;;;;;;;0.17;0.17;;;;;;;;;;5072188;28;20028;-75
2024/01/23 09:59:58;;;;;;;0.20;0.17;;;;;;;;;;5092945;28;20109;-73
2024/01/23 10:02:24;;;;;;;0.10;0.10;;;;;;;;;;5090227;28;20056;-74
2024/01/23 10:04:51;;;;;;;0.13;0.13;;;;;;;;;;5087311;28;20075;-74
2024/01/23 10:07:16;;;;;;;0.17;0.17;;;;;;;;;;5087874;28;20028;-73
2024/01/23 10:09:48;;;;;;;0.13;0.13;;;;;;;;;;5092996;28;20540;-75
2024/01/23 10:12:14;;;;;;;0.10;0.10;;;;;;;;;;5093732;28;20107;-74
2024/01/23 10:14:43;;;;;;;0.95;0.35;;;;;;;;;;5094552;28;20115;-73
2024/01/23 10:17:09;;;;;;;0.20;0.20;;;;;;;;;;5089622;28;20103;-78
2024/01/23 10:19:35;;;;;;;0.40;0.40;;;;;;;;;;5088031;28;20103;-73
2024/01/23 10:22:00;;;;;;;0.20;0.20;;;;;;;;;;5071902;28;20021;-76
2024/01/23 10:24:28;;;;;;;0.30;0.30;;;;;;;;;;5081423;28;20030;-78
2024/01/23 10:26:54;;;;;;;0.10;0.10;;;;;;;;;;5073396;28;20479;-72
2024/01/23 10:29:20;;;;;;;0.20;0.20;;;;;;;;;;5091336;28;20205;-73
2024/01/23 10:31:46;;;;;;;0.10;0.10;;;;;;;;;;5091933;28;20032;-73
2024/01/23 10:34:12;;;;;;;0.10;0.10;;;;;;;;;;5091402;28;20024;-76
2024/01/23 10:36:39;;;;;;;0.10;0.10;;;;;;;;;;5092098;28;20414;-77
2024/01/23 10:39:05;;;;;;;0.20;0.20;;;;;;;;;;5073604;28;20034;-75
2024/01/23 10:41:31;;;;;;;0.20;0.20;;;;;;;;;;5091796;28;20036;-72
2024/01/23 10:43:58;;;;;;;0.30;0.30;;;;;;;;;;5085458;28;20021;-76
2024/01/23 10:46:24;;;;;;;0.20;0.20;;;;;;;;;;5088331;28;20038;-73
2024/01/23 10:48:50;;;;;;;1.13;0.63;;;;;;;;;;5091178;28;20044;-74
2024/01/23 10:51:20;;;;;;;0.30;0.30;;;;;;;;;;5091838;28;20111;-72
2024/01/23 10:53:49;;;;;;;2.85;1.05;;;;;;;;;;5091721;28;20024;-73
2024/01/23 10:56:15;;;;;;;0.20;0.20;;;;;;;;;;5079829;28;20086;-73
2024/01/23 10:58:42;;;;;;;0.60;0.40;;;;;;;;;;5071373;28;20100;-75
2024/01/23 11:01:10;;;;;;;0.28;0.28;;;;;;;;;;5070519;28;20036;-74
2024/01/23 11:03:36;;;;;;;1.67;1.23;;;;;;;;;;5070664;28;20109;-74
2024/01/23 11:06:09;;;;;;;2.45;1.17;;;;;;;;;;5072030;28;20033;-74
2024/01/23 11:08:53;;;;;;;0.57;0.40;;;;;;;;;;5088383;28;20231;-75
2024/01/23 11:11:36;;;;;;;1.95;1.02;;;;;;;;;;5091384;28;20039;-73
2024/01/23 11:14:12;;;;;;;2.72;0.80;;;;;;;;;;5088003;28;20109;-77
2024/01/23 11:16:38;;;;;;;0.85;0.73;;;;;;;;;;5070721;28;20487;-75
2024/01/23 11:19:05;;;;;;;2.05;1.35;;;;;;;;;;5091109;28;20028;-74
2024/01/23 11:21:30;;;;;;;1.30;1.20;;;;;;;;;;5091364;28;20518;-76
2024/01/23 11:24:00;;;;;;;2.25;0.90;;;;;;;;;;5091181;28;20069;-73
2024/01/23 11:26:26;;;;;;;;;;;;;;;;;;5088488;28;20134;-74
2024/01/23 11:28:52;;;;;;;1.25;0.82;;;;;;;;;;5070471;28;20006;-76
2024/01/23 11:31:19;;;;;;;2.08;0.73;;;;;;;;;;5090581;28;20119;-75
2024/01/23 11:33:45;;;;;;;0.35;0.35;;;;;;;;;;5089358;28;20067;-75
2024/01/23 11:36:12;;;;;;;1.05;0.65;;;;;;;;;;5085455;28;20036;-75
2024/01/23 11:38:40;;;;;;;0.22;0.22;;;;;;;;;;5086926;28;20417;-74
2024/01/23 11:41:11;;;;;;;3.38;0.95;;;;;;;;;;5085798;28;20032;-74
2024/01/23 11:43:37;;;;;;;0.20;0.20;;;;;;;;;;5087241;28;20020;-74
2024/01/23 11:46:03;;;;;;;0.50;0.40;;;;;;;;;;5087308;28;20086;-74
2024/01/23 11:48:28;;;;;;;3.08;2.13;;;;;;;;;;5089603;28;20356;-75
2024/01/23 11:50:56;;;;;;;5.43;1.23;;;;;;;;;;5090100;28;20114;-78
2024/01/23 11:53:23;;;;;;;0.20;0.20;;;;;;;;;;5090655;28;20466;-75
2024/01/23 11:55:49;;;;;;;0.50;0.50;;;;;;;;;;5090326;28;20028;-74
2024/01/23 11:58:14;;;;;;;0.32;0.32;;;;;;;;;;5072359;28;20016;-74
2024/01/23 12:00:40;;;;;;;0.60;0.60;;;;;;;;;;5089584;28;20451;-75
2024/01/23 12:03:20;;;;;;;0.93;0.70;;;;;;;;;;5088147;28;20107;-74
2024/01/23 12:05:46;;;;;;;1.02;0.80;;;;;;;;;;5065796;28;20039;-74
2024/01/23 12:08:12;;;;;;;1.33;1.00;;;;;;;;;;5088447;28;20012;-73
2024/01/23 12:10:38;;;;;;;0.20;0.20;;;;;;;;;;5089463;28;20388;-75
2024/01/23 12:13:03;;;;;;;0.20;0.20;;;;;;;;;;5087473;28;20344;-74
2024/01/23 12:15:29;;;;;;;0.20;0.20;;;;;;;;;;5087442;28;20432;-75
2024/01/23 12:17:54;;;;;;;1.95;0.55;;;;;;;;;;5089935;28;20024;-73
2024/01/23 12:20:20;;;;;;;8.32;5.47;;;;;;;;;;5090183;28;20036;-75
2024/01/23 12:22:47;;;;;;;0.30;0.30;;;;;;;;;;5088346;28;20062;-74
2024/01/23 12:25:13;;;;;;;0.20;0.20;;;;;;;;;;5051168;28;20044;-73
2024/01/23 12:27:39;;;;;;;0.22;0.22;;;;;;;;;;5069751;28;20013;-73
2024/01/23 12:30:09;;;;;;;1.00;1.00;;;;;;;;;;5051567;28;20971;-74
2024/01/23 12:32:35;;;;;;;0.30;0.30;;;;;;;;;;5069568;28;20480;-74
2024/01/23 12:35:00;;;;;;;0.47;0.47;;;;;;;;;;5069404;28;20024;-73
2024/01/23 12:37:28;;;;;;;0.55;0.45;;;;;;;;;;5085633;28;20020;-74
2024/01/23 12:39:55;;;;;;;0.20;0.20;;;;;;;;;;5089731;28;20024;-74
2024/01/23 12:42:22;;;;;;;0.20;0.20;;;;;;;;;;5089683;28;20020;-75
2024/01/23 12:44:47;;;;;;;1.13;0.80;;;;;;;;;;5084416;28;20100;-74
2024/01/23 12:47:16;;;;;;;0.55;0.40;;;;;;;;;;5088471;28;20111;-74
2024/01/23 12:49:41;;;;;;;0.30;0.30;;;;;;;;;;5069116;28;20032;-74
2024/01/23 12:52:16;;;;;;;5.88;0.43;;;;;;;;;;5069240;28;20357;-75
2024/01/23 12:54:42;;;;;;;0.43;0.40;;;;;;;;;;5069447;28;20032;-75
2024/01/23 12:57:08;;;;;;;0.30;0.30;;;;;;;;;;5069378;28;20040;-74
2024/01/23 12:59:33;;;;;;;0.40;0.40;;;;;;;;;;5069050;28;20475;-73
2024/01/23 13:01:59;;;;;;;1.92;0.68;;;;;;;;;;5069148;28;20077;-74
2024/01/23 13:04:25;;;;;;;0.20;0.20;;;;;;;;;;5081918;28;20036;-75
2024/01/23 13:06:50;;;;;;;0.30;0.30;;;;;;;;;;5089498;28;20518;-74
2024/01/23 13:09:16;;;;;;;0.20;0.20;;;;;;;;;;5089218;28;20486;-74
2024/01/23 13:11:42;;;;;;;0.20;0.20;;;;;;;;;;5070765;28;20032;-73
2024/01/23 13:14:08;;;;;;;1.45;0.60;;;;;;;;;;5089290;28;20024;-73
2024/01/23 13:16:33;;;;;;;0.20;0.20;;;;;;;;;;5089090;28;20531;-74
2024/01/23 13:18:59;;;;;;;0.30;0.30;;;;;;;;;;5089057;28;20384;-73
2024/01/23 13:21:25;;;;;;;5.75;0.80;;;;;;;;;;5089138;28;20066;-73
2024/01/23 13:23:51;;;;;;;0.20;0.20;;;;;;;;;;5089105;28;20036;-73
2024/01/23 13:26:16;;;;;;;0.20;0.20;;;;;;;;;;5085748;28;20129;-73
2024/01/23 13:28:43;;;;;;;0.20;0.20;;;;;;;;;;5088738;28;20456;-77
2024/01/23 13:31:09;;;;;;;7.90;0.93;;;;;;;;;;5086039;28;20124;-74
2024/01/23 13:33:34;;;;;;;0.20;0.20;;;;;;;;;;5079519;28;20111;-73
2024/01/23 13:36:00;;;;;;;0.20;0.20;;;;;;;;;;5069509;28;20504;-75
2024/01/23 13:38:26;;;;;;;0.30;0.30;;;;;;;;;;5087296;28;20036;-73
2024/01/23 13:40:52;;;;;;;0.20;0.20;;;;;;;;;;5088619;28;20031;-73
2024/01/23 13:43:17;;;;;;;0.20;0.20;;;;;;;;;;5088782;28;20039;-73
2024/01/23 13:45:43;;;;;;;0.25;0.25;;;;;;;;;;5087777;28;20387;-73
2024/01/23 13:48:09;;;;;;;0.20;0.20;;;;;;;;;;5088803;28;20023;-74
2024/01/23 13:50:35;;;;;;;0.20;0.20;;;;;;;;;;5089084;28;20028;-74
2024/01/23 13:53:00;;;;;;;0.70;0.40;;;;;;;;;;5088531;28;20153;-73
2024/01/23 13:55:26;;;;;;;0.20;0.20;;;;;;;;;;5088999;28;20016;-76
2024/01/23 13:57:52;;;;;;;1.38;1.27;;;;;;;;;;5087030;28;20111;-72
2024/01/23 14:00:21;;;;;;;0.47;0.38;;;;;;;;;;5088673;28;20595;-74
2024/01/23 14:02:46;;;;;;;0.20;0.20;;;;;;;;;;5087336;28;20112;-75
2024/01/23 14:05:12;;;;;;;0.55;0.45;;;;;;;;;;5088528;28;20498;-77
2024/01/23 14:07:41;;;;;;;0.32;0.30;;;;;;;;;;5087481;28;20563;-73
2024/01/23 14:10:16;;;;;;;0.20;0.20;;;;;;;;;;5070532;28;20043;-73
2024/01/23 14:12:45;;;;;;;0.30;0.30;;;;;;;;;;5089065;28;20258;-73
2024/01/23 14:15:11;;;;;;;0.30;0.30;;;;;;;;;;5090285;28;20367;-73
2024/01/23 14:17:38;;;;;;;1.20;0.57;;;;;;;;;;5090081;28;20027;-73
2024/01/23 14:20:04;;;;;;;0.20;0.20;;;;;;;;;;5089295;28;20044;-72
2024/01/23 14:22:30;;;;;;;0.20;0.20;;;;;;;;;;5088536;28;20091;-73
2024/01/23 14:24:56;;;;;;;0.20;0.20;;;;;;;;;;5090823;28;20028;-73
2024/01/23 14:27:22;;;;;;;1.98;1.05;;;;;;;;;;5092527;28;20086;-73
2024/01/23 14:29:48;;;;;;;0.25;0.25;;;;;;;;;;5091867;28;20131;-75
2024/01/23 14:32:14;;;;;;;0.65;0.65;;;;;;;;;;5092275;28;20107;-75
2024/01/23 14:34:39;;;;;;;0.20;0.20;;;;;;;;;;5090471;28;20025;-74
2024/01/23 14:37:05;;;;;;;0.32;0.30;;;;;;;;;;5090216;28;20051;-82